Time;durP1;ratioP1;P1;durP2;ratioP2;P2;SDS_P1;SDS_P2;PMS_P1;PMS_P2;Temp;Humidity;BMP_temperature;BMP_pressure;BME280_temperature;BME280_humidity;BME280_pressure;Samples;Min_cycle;Max_cycle;Signal;HPM_P1;HPM_P2
2022/10/03 00:03:20;;;;;;;;;;;;;;;;;;10461798;28;19982;-59
2022/10/03 00:08:22;;;;;;;;;;;;;;;;;;10461953;28;20296;-59
2022/10/03 00:13:24;;;;;;;;;;;;;;;;;;10460269;28;19929;-59
2022/10/03 00:18:26;;;;;;;;;;;;;;;;;;10462590;28;19929;-59
2022/10/03 00:23:28;;;;;;;;;;;;;;;;;;10460446;28;20376;-59
2022/10/03 00:28:31;;;;;;;;;;;;;;;;;;10462046;28;19929;-59
2022/10/03 00:33:33;;;;;;;;;;;;;;;;;;10460089;28;20342;-59
2022/10/03 00:38:35;;;;;;;;;;;;;;;;;;10460457;28;19928;-59
2022/10/03 00:43:38;;;;;;;;;;;;;;;;;;10460189;28;19929;-59
2022/10/03 00:48:40;;;;;;;;;;;;;;;;;;10460555;28;20326;-59
2022/10/03 00:53:42;;;;;;;;;;;;;;;;;;10459635;28;19982;-59
2022/10/03 00:58:44;;;;;;;;;;;;;;;;;;10459953;28;20376;-59
2022/10/03 01:03:46;;;;;;;;;;;;;;;;;;10458510;28;19928;-59
2022/10/03 01:08:48;;;;;;;;;;;;;;;;;;10457735;28;20326;-59
2022/10/03 01:13:50;;;;;;;;;;;;;;;;;;10458187;28;19932;-59
2022/10/03 01:18:53;;;;;;;;;;;;;;;;;;10458763;28;19951;-59
2022/10/03 01:23:55;;;;;;;;;;;;;;;;;;10458829;28;19932;-59
2022/10/03 01:34:17;;;;;;;;;;;;;;;;;;10458384;28;19925;-59
2022/10/03 01:39:19;;;;;;;;;;;;;;;;;;10458857;28;19928;-59
2022/10/03 01:44:23;;;;;;;;;;;;;;;;;;10457647;28;20375;-59
2022/10/03 01:49:25;;;;;;;;;;;;;;;;;;10457973;28;19929;-59
2022/10/03 01:54:28;;;;;;;;;;;;;;;;;;10457294;28;19979;-59
2022/10/03 01:59:30;;;;;;;;;;;;;;;;;;10456534;28;19925;-59
2022/10/03 02:04:32;;;;;;;;;;;;;;;;;;10458083;28;19978;-59
2022/10/03 02:09:35;;;;;;;;;;;;;;;;;;10458033;28;19925;-59
2022/10/03 02:14:37;;;;;;;;;;;;;;;;;;10456293;28;20444;-59
2022/10/03 02:19:39;;;;;;;;;;;;;;;;;;10455968;28;19929;-59
2022/10/03 02:24:41;;;;;;;;;;;;;;;;;;10457598;28;19978;-59
2022/10/03 02:29:43;;;;;;;;;;;;;;;;;;10457549;28;19925;-59
2022/10/03 02:34:45;;;;;;;;;;;;;;;;;;10456362;28;19978;-59
2022/10/03 02:39:49;;;;;;;;;;;;;;;;;;10455767;28;20334;-59
2022/10/03 02:44:51;;;;;;;;;;;;;;;;;;10457225;28;19924;-59
2022/10/03 02:49:53;;;;;;;;;;;;;;;;;;10437001;28;19951;-59
2022/10/03 02:54:55;;;;;;;;;;;;;;;;;;10455452;28;20367;-59
2022/10/03 02:59:57;;;;;;;;;;;;;;;;;;10455864;28;19925;-59
2022/10/03 03:04:59;;;;;;;;;;;;;;;;;;10458664;28;19929;-59
2022/10/03 03:10:01;;;;;;;;;;;;;;;;;;10464949;28;19974;-59
2022/10/03 03:15:07;;;;;;;;;;;;;;;;;;10463986;28;19925;-59
2022/10/03 03:20:09;;;;;;;;;;;;;;;;;;10462910;28;19928;-59
2022/10/03 03:25:11;;;;;;;;;;;;;;;;;;10463753;28;20364;-59
2022/10/03 03:30:13;;;;;;;;;;;;;;;;;;10463561;28;19925;-59
2022/10/03 03:35:17;;;;;;;;;;;;;;;;;;10462932;28;19925;-59
2022/10/03 03:40:19;;;;;;;;;;;;;;;;;;10462683;28;19928;-59
2022/10/03 03:45:21;;;;;;;;;;;;;;;;;;10461816;28;20380;-59
2022/10/03 03:50:23;;;;;;;;;;;;;;;;;;10463433;28;19979;-59
2022/10/03 03:55:25;;;;;;;;;;;;;;;;;;10462599;28;19929;-59
2022/10/03 04:00:30;;;;;;;;;;;;;;;;;;10460200;28;19979;-59
2022/10/03 04:05:33;;;;;;;;;;;;;;;;;;10462857;28;19925;-59
2022/10/03 04:10:37;;;;;;;;;;;;;;;;;;10461017;28;20026;-59
2022/10/03 04:15:39;;;;;;;;;;;;;;;;;;10461458;28;19929;-59
2022/10/03 04:20:43;;;;;;;;;;;;;;;;;;10460648;28;20342;-60
2022/10/03 04:25:45;;;;;;;;;;;;;;;;;;10462064;28;19978;-59
2022/10/03 04:30:47;;;;;;;;;;;;;;;;;;10461274;28;19987;-59
2022/10/03 04:35:51;;;;;;;;;;;;;;;;;;10460095;28;20155;-59
2022/10/03 04:40:53;;;;;;;;;;;;;;;;;;10458534;28;19925;-59
2022/10/03 04:45:55;;;;;;;;;;;;;;;;;;10461012;28;19956;-59
2022/10/03 04:50:57;;;;;;;;;;;;;;;;;;10461100;28;19924;-58
2022/10/03 04:55:59;;;;;;;;;;;;;;;;;;10460082;28;19936;-59
2022/10/03 05:01:01;;;;;;;;;;;;;;;;;;10458046;28;20418;-59
2022/10/03 05:06:03;;;;;;;;;;;;;;;;;;10458793;28;20388;-58
2022/10/03 05:11:06;;;;;;;;;;;;;;;;;;10459640;28;19924;-58
2022/10/03 05:16:08;;;;;;;;;;;;;;;;;;10460105;28;19925;-59
2022/10/03 05:21:11;;;;;;;;;;;;;;;;;;10458007;28;20023;-58
2022/10/03 05:26:13;;;;;;;;;;;;;;;;;;10458097;28;19928;-59
2022/10/03 05:31:35;;;;;;;;;;;;;;;;;;10458046;28;19979;-59
2022/10/03 05:36:37;;;;;;;;;;;;;;;;;;10457755;28;19925;-59
2022/10/03 05:41:39;;;;;;;;;;;;;;;;;;10456767;28;20310;-59
2022/10/03 05:46:42;;;;;;;;;;;;;;;;;;10458089;28;19968;-59
2022/10/03 05:51:45;;;;;;;;;;;;;;;;;;10458656;28;19974;-59
2022/10/03 05:56:47;;;;;;;;;;;;;;;;;;10457535;28;19925;-59
2022/10/03 06:01:49;;;;;;;;;;;;;;;;;;10455970;28;20489;-59
2022/10/03 06:06:52;;;;;;;;;;;;;;;;;;10458165;28;19925;-59
2022/10/03 06:11:54;;;;;;;;;;;;;;;;;;10457380;28;20429;-59
2022/10/03 06:16:56;;;;;;;;;;;;;;;;;;10457042;28;19970;-59
2022/10/03 06:21:58;;;;;;;;;;;;;;;;;;10455187;28;19925;-59
2022/10/03 06:27:00;;;;;;;;;;;;;;;;;;10456562;28;19929;-59
2022/10/03 06:32:02;;;;;;;;;;;;;;;;;;10457497;28;19975;-59
2022/10/03 06:37:04;;;;;;;;;;;;;;;;;;10456722;28;20450;-59
2022/10/03 06:42:06;;;;;;;;;;;;;;;;;;10454549;28;19925;-59
2022/10/03 06:47:08;;;;;;;;;;;;;;;;;;10456414;28;20364;-59
2022/10/03 06:52:10;;;;;;;;;;;;;;;;;;10457036;28;19978;-58
2022/10/03 06:57:12;;;;;;;;;;;;;;;;;;10455033;28;19971;-58
2022/10/03 07:02:14;;;;;;;;;;;;;;;;;;10463295;22;19932;-62
2022/10/03 07:07:16;;;;;;;;;;;;;;;;;;10456249;28;20375;-62
2022/10/03 07:12:18;;;;;;;;;;;;;;;;;;10456130;28;19990;-62
2022/10/03 07:17:21;;;;;;;;;;;;;;;;;;10455336;28;19925;-62
2022/10/03 07:22:24;;;;;;;;;;;;;;;;;;10454835;28;19924;-62
2022/10/03 07:27:26;;;;;;;;;;;;;;;;;;10456465;28;19971;-62
2022/10/03 07:32:28;;;;;;;;;;;;;;;;;;10453596;28;19924;-61
2022/10/03 07:42:51;;;;;;;;;;;;;;;;;;10454286;28;19933;-62
2022/10/03 07:47:53;;;;;;;;;;;;;;;;;;10453777;28;19925;-62
2022/10/03 07:52:56;;;;;;;;;;;;;;;;;;10457666;28;20382;-62
2022/10/03 07:57:58;;;;;;;;;;;;;;;;;;10461548;28;20372;-62
2022/10/03 08:03:00;;;;;;;;;;;;;;;;;;10462467;28;19975;-62
2022/10/03 08:08:02;;;;;;;;;;;;;;;;;;10462221;28;19925;-62
2022/10/03 08:13:05;;;;;;;;;;;;;;;;;;10461071;28;19925;-62
2022/10/03 08:18:07;;;;;;;;;;;;;;;;;;10462435;28;19979;-63
2022/10/03 08:23:09;;;;;;;;;;;;;;;;;;10460368;28;19935;-62
2022/10/03 08:28:11;;;;;;;;;;;;;;;;;;10460436;28;20413;-63
2022/10/03 08:33:13;;;;;;;;;;;;;;;;;;10461203;28;20479;-63
2022/10/03 08:38:15;;;;;;;;;;;;;;;;;;10461613;28;19925;-63
2022/10/03 08:43:17;;;;;;;;;;;;;;;;;;10459726;28;20334;-63
2022/10/03 08:48:19;;;;;;;;;;;;;;;;;;10460440;28;19925;-63
2022/10/03 08:53:21;;;;;;;;;;;;;;;;;;10464814;28;19929;-63
2022/10/03 08:58:24;;;;;;;;;;;;;;;;;;10464925;28;19924;-63
2022/10/03 09:03:26;;;;;;;;;;;;;;;;;;10472157;28;20272;-63
2022/10/03 09:08:36;;;;;;;;;;;;;;;;;;10464154;28;19951;-63
2022/10/03 09:13:38;;;;;;;;;;;;;;;;;;10458292;28;20287;-63
2022/10/03 09:18:40;;;;;;;;;;;;;;;;;;10458787;28;19957;-63
2022/10/03 09:23:42;;;;;;;;;;;;;;;;;;10459917;28;19925;-64
2022/10/03 09:28:46;;;;;;;;;;;;;;;;;;10457997;28;19955;-64
2022/10/03 09:33:49;;;;;;;;;;;;;;;;;;10459738;28;19982;-64
2022/10/03 09:38:51;;;;;;;;;;;;;;;;;;10453930;28;19929;-64
2022/10/03 09:43:54;;;;;;;;;;;;;;;;;;10456064;28;20307;-64
2022/10/03 09:48:56;;;;;;;;;;;;;;;;;;10455909;28;20383;-64
2022/10/03 09:53:58;;;;;;;;;;;;;;;;;;10458099;28;19924;-64
2022/10/03 09:59:04;;;;;;;;;;;;;;;;;;10455220;28;19925;-64
2022/10/03 10:04:06;;;;;;;;;;;;;;;;;;10457598;28;19971;-64
2022/10/03 10:09:08;;;;;;;;;;;;;;;;;;10457397;28;19929;-64
2022/10/03 10:14:10;;;;;;;;;;;;;;;;;;10457320;28;19929;-64
2022/10/03 10:19:12;;;;;;;;;;;;;;;;;;10457148;28;20422;-64
2022/10/03 10:24:14;;;;;;;;;;;;;;;;;;10456992;28;19924;-64
2022/10/03 10:29:16;;;;;;;;;;;;;;;;;;10457595;28;20038;-64
2022/10/03 10:34:18;;;;;;;;;;;;;;;;;;10456822;28;19979;-64
2022/10/03 10:39:21;;;;;;;;;;;;;;;;;;10457226;28;19925;-64
2022/10/03 10:44:23;;;;;;;;;;;;;;;;;;10456358;28;20326;-64
2022/10/03 10:49:25;;;;;;;;;;;;;;;;;;10457198;28;19924;-64
2022/10/03 10:54:30;;;;;;;;;;;;;;;;;;10457042;28;19964;-65
2022/10/03 10:59:32;;;;;;;;;;;;;;;;;;10456935;28;19933;-65
2022/10/03 11:04:34;;;;;;;;;;;;;;;;;;10456246;28;19925;-64
2022/10/03 11:09:36;;;;;;;;;;;;;;;;;;10456723;28;19975;-64
2022/10/03 11:14:38;;;;;;;;;;;;;;;;;;10456700;28;19925;-64
2022/10/03 11:19:40;;;;;;;;;;;;;;;;;;10456243;28;19968;-65
2022/10/03 11:24:42;;;;;;;;;;;;;;;;;;10455608;28;19940;-65
2022/10/03 11:29:44;;;;;;;;;;;;;;;;;;10464107;28;19932;-64
2022/10/03 11:34:46;;;;;;;;;;;;;;;;;;10464059;28;20437;-65
2022/10/03 11:39:48;;;;;;;;;;;;;;;;;;10460069;28;19932;-64
2022/10/03 11:44:51;;;;;;;;;;;;;;;;;;10463272;28;19925;-64
2022/10/03 11:49:53;;;;;;;;;;;;;;;;;;10462447;28;19929;-64
2022/10/03 11:54:55;;;;;;;;;;;;;;;;;;10462404;28;19932;-65
2022/10/03 11:59:59;;;;;;;;;;;;;;;;;;10462445;28;19925;-64
2022/10/03 12:05:01;;;;;;;;;;;;;;;;;;10456338;28;19925;-64
2022/10/03 12:10:03;;;;;;;;;;;;;;;;;;10462788;28;19925;-64
2022/10/03 12:15:05;;;;;;;;;;;;;;;;;;10460727;28;19924;-64
2022/10/03 12:20:09;;;;;;;;;;;;;;;;;;10461456;28;20433;-64
2022/10/03 12:25:11;;;;;;;;;;;;;;;;;;10461424;28;19951;-64
2022/10/03 12:30:14;;;;;;;;;;;;;;;;;;10461214;28;20362;-65
2022/10/03 12:35:18;;;;;;;;;;;;;;;;;;10460055;28;19929;-64
2022/10/03 12:40:21;;;;;;;;;;;;;;;;;;10461383;28;19924;-64
2022/10/03 12:45:23;;;;;;;;;;;;;;;;;;10459783;28;20391;-64
2022/10/03 12:50:26;;;;;;;;;;;;;;;;;;10461216;28;19940;-64
2022/10/03 12:55:28;;;;;;;;;;;;;;;;;;10459902;28;19924;-64
2022/10/03 13:00:30;;;;;;;;;;;;;;;;;;10460866;28;20425;-64
2022/10/03 13:05:35;;;;;;;;;;;;;;;;;;10461019;28;19924;-64
2022/10/03 13:10:38;;;;;;;;;;;;;;;;;;10466560;28;20376;-64
2022/10/03 13:15:46;;;;;;;;;;;;;;;;;;10460032;28;19925;-64
2022/10/03 13:20:49;;;;;;;;;;;;;;;;;;10457540;28;20423;-64
2022/10/03 13:25:51;;;;;;;;;;;;;;;;;;10457178;28;19970;-64
2022/10/03 13:30:53;;;;;;;;;;;;;;;;;;10458613;28;19983;-64
2022/10/03 13:35:58;;;;;;;;;;;;;;;;;;10458760;28;19925;-64
2022/10/03 13:41:00;;;;;;;;;;;;;;;;;;10458063;28;19946;-64
2022/10/03 13:46:02;;;;;;;;;;;;;;;;;;10458391;28;20342;-64
2022/10/03 13:51:04;;;;;;;;;;;;;;;;;;10456551;28;20279;-64
2022/10/03 13:56:06;;;;;;;;;;;;;;;;;;10457844;28;19924;-65
2022/10/03 14:01:12;;;;;;;;;;;;;;;;;;10457976;28;19925;-64
2022/10/03 14:06:14;;;;;;;;;;;;;;;;;;10458324;28;19968;-64
2022/10/03 14:11:16;;;;;;;;;;;;;;;;;;10450588;28;19978;-64
2022/10/03 14:16:20;;;;;;;;;;;;;;;;;;10453373;28;19925;-64
2022/10/03 14:21:22;;;;;;;;;;;;;;;;;;10455832;28;19960;-64
2022/10/03 14:26:24;;;;;;;;;;;;;;;;;;10456623;28;20319;-64
2022/10/03 14:31:30;;;;;;;;;;;;;;;;;;10451648;28;19929;-64
2022/10/03 14:36:32;;;;;;;;;;;;;;;;;;10454864;28;20283;-64
2022/10/03 14:41:34;;;;;;;;;;;;;;;;;;10454459;28;19928;-64
2022/10/03 14:46:37;;;;;;;;;;;;;;;;;;10457216;28;19924;-64
2022/10/03 14:51:39;;;;;;;;;;;;;;;;;;10456649;28;19928;-64
2022/10/03 14:56:41;;;;;;;;;;;;;;;;;;10453932;28;19924;-64
2022/10/03 15:01:43;;;;;;;;;;;;;;;;;;10460900;28;19928;-64
2022/10/03 15:06:46;;;;;;;;;;;;;;;;;;10464290;28;19925;-64
2022/10/03 15:11:49;;;;;;;;;;;;;;;;;;10461522;28;19932;-64
2022/10/03 15:16:51;;;;;;;;;;;;;;;;;;10461732;28;19979;-65
2022/10/03 15:21:53;;;;;;;;;;;;;;;;;;10464261;28;19928;-64
2022/10/03 15:26:55;;;;;;;;;;;;;;;;;;10463879;28;20322;-64
2022/10/03 15:31:57;;;;;;;;;;;;;;;;;;10461424;28;19978;-64
2022/10/03 15:37:03;;;;;;;;;;;;;;;;;;10461588;28;19978;-64
2022/10/03 15:42:06;;;;;;;;;;;;;;;;;;10463499;28;20039;-64
2022/10/03 15:47:08;;;;;;;;;;;;;;;;;;10462817;28;19925;-64
2022/10/03 15:52:10;;;;;;;;;;;;;;;;;;10459068;28;20389;-64
2022/10/03 15:57:13;;;;;;;;;;;;;;;;;;10461611;28;20425;-64
2022/10/03 16:02:15;;;;;;;;;;;;;;;;;;10462395;28;19925;-64
2022/10/03 16:07:17;;;;;;;;;;;;;;;;;;10461850;28;19925;-64
2022/10/03 16:12:19;;;;;;;;;;;;;;;;;;10460426;28;19979;-64
2022/10/03 16:17:21;;;;;;;;;;;;;;;;;;10460437;28;19925;-64
2022/10/03 16:22:23;;;;;;;;;;;;;;;;;;10459586;28;19951;-64
2022/10/03 16:27:25;;;;;;;;;;;;;;;;;;10462207;28;19925;-64
2022/10/03 16:32:27;;;;;;;;;;;;;;;;;;10460325;28;19933;-64
2022/10/03 16:37:29;;;;;;;;;;;;;;;;;;10461731;28;19925;-64
2022/10/03 16:42:31;;;;;;;;;;;;;;;;;;10461038;28;19928;-64
2022/10/03 16:47:34;;;;;;;;;;;;;;;;;;10456838;28;20433;-64
2022/10/03 16:52:36;;;;;;;;;;;;;;;;;;10459927;28;19991;-64
2022/10/03 16:57:38;;;;;;;;;;;;;;;;;;10461015;28;19978;-64
2022/10/03 17:02:40;;;;;;;;;;;;;;;;;;10458880;28;19971;-64
2022/10/03 17:07:42;;;;;;;;;;;;;;;;;;10459109;28;20396;-64
2022/10/03 17:12:45;;;;;;;;;;;;;;;;;;10459412;28;19979;-64
2022/10/03 17:17:47;;;;;;;;;;;;;;;;;;10460190;28;19951;-64
2022/10/03 17:22:49;;;;;;;;;;;;;;;;;;10457017;28;20453;-64
2022/10/03 17:27:51;;;;;;;;;;;;;;;;;;10458900;28;19929;-64
2022/10/03 17:32:53;;;;;;;;;;;;;;;;;;10458845;28;20392;-64
2022/10/03 17:37:55;;;;;;;;;;;;;;;;;;10458353;28;19971;-64
2022/10/03 17:43:00;;;;;;;;;;;;;;;;;;10441171;28;19925;-64
2022/10/03 17:48:10;;;;;;;;;;;;;;;;;;10491960;22;19929;-59
2022/10/03 17:53:12;;;;;;;;;;;;;;;;;;10450026;28;19929;-59
2022/10/03 17:58:16;;;;;;;;;;;;;;;;;;10449650;28;19928;-59
2022/10/03 18:03:18;;;;;;;;;;;;;;;;;;10451551;28;19929;-59
2022/10/03 18:08:20;;;;;;;;;;;;;;;;;;10451410;28;19933;-59
2022/10/03 18:13:22;;;;;;;;;;;;;;;;;;10449391;28;20015;-59
2022/10/03 18:18:24;;;;;;;;;;;;;;;;;;10450398;28;20376;-59
2022/10/03 18:23:30;;;;;;;;;;;;;;;;;;10450079;28;19925;-59
2022/10/03 18:28:52;;;;;;;;;;;;;;;;;;10449665;28;20023;-59
2022/10/03 18:33:54;;;;;;;;;;;;;;;;;;10455935;28;19925;-59
2022/10/03 18:38:56;;;;;;;;;;;;;;;;;;10459414;28;19925;-59
2022/10/03 18:43:58;;;;;;;;;;;;;;;;;;10445710;28;20273;-59
2022/10/03 18:49:00;;;;;;;;;;;;;;;;;;10447951;28;19929;-59
2022/10/03 18:54:23;;;;;;;;;;;;;;;;;;10447879;28;20450;-59
2022/10/03 18:59:26;;;;;;;;;;;;;;;;;;10422597;28;19975;-59
2022/10/03 19:04:28;;;;;;;;;;;;;;;;;;10421552;28;19955;-59
2022/10/03 19:09:30;;;;;;;;;;;;;;;;;;10419755;28;19925;-59
2022/10/03 19:14:32;;;;;;;;;;;;;;;;;;10420420;28;19925;-59
2022/10/03 19:19:37;;;;;;;;;;;;;;;;;;10420587;28;20331;-59
2022/10/03 19:24:39;;;;;;;;;;;;;;;;;;10420559;28;19925;-59
2022/10/03 19:29:59;;;;;;;;;;;;;;;;;;10400917;28;19932;-59
2022/10/03 19:35:01;;;;;;;;;;;;;;;;;;10418124;28;20372;-59
2022/10/03 19:40:03;;;;;;;;;;;;;;;;;;10419678;28;19980;-59
2022/10/03 19:45:05;;;;;;;;;;;;;;;;;;10420165;28;19956;-59
2022/10/03 19:50:07;;;;;;;;;;;;;;;;;;10418405;28;19929;-59
2022/10/03 19:55:09;;;;;;;;;;;;;;;;;;10419398;28;19925;-59
2022/10/03 20:00:11;;;;;;;;;;;;;;;;;;10418166;28;19987;-59
2022/10/03 20:05:13;;;;;;;;;;;;;;;;;;10419404;28;19929;-59
2022/10/03 20:10:16;;;;;;;;;;;;;;;;;;10414746;28;20371;-59
2022/10/03 20:15:18;;;;;;;;;;;;;;;;;;10413056;28;19929;-59
2022/10/03 20:20:21;;;;;;;;;;;;;;;;;;10415436;28;19925;-59
2022/10/03 20:25:23;;;;;;;;;;;;;;;;;;10417427;28;19933;-59
2022/10/03 20:30:29;;;;;;;;;;;;;;;;;;10418447;28;19925;-59
2022/10/03 20:35:31;;;;;;;;;;;;;;;;;;10417977;28;19975;-59
2022/10/03 20:40:34;;;;;;;;;;;;;;;;;;10417842;28;19926;-59
2022/10/03 20:45:36;;;;;;;;;;;;;;;;;;10417535;28;19925;-59
2022/10/03 20:50:41;;;;;;;;;;;;;;;;;;10417497;28;19929;-59
2022/10/03 20:55:44;;;;;;;;;;;;;;;;;;10416768;28;19929;-59
2022/10/03 21:00:46;;;;;;;;;;;;;;;;;;10411845;28;20359;-59
2022/10/03 21:05:48;;;;;;;;;;;;;;;;;;10412180;28;19929;-59
2022/10/03 21:10:50;;;;;;;;;;;;;;;;;;10409470;28;19928;-59
2022/10/03 21:15:52;;;;;;;;;;;;;;;;;;10411617;28;19979;-59
2022/10/03 21:20:54;;;;;;;;;;;;;;;;;;10405696;28;20446;-59
2022/10/03 21:25:57;;;;;;;;;;;;;;;;;;10407881;28;19925;-59
2022/10/03 21:30:59;;;;;;;;;;;;;;;;;;10411223;28;19925;-59
2022/10/03 21:36:01;;;;;;;;;;;;;;;;;;10410045;28;20429;-59
2022/10/03 21:41:04;;;;;;;;;;;;;;;;;;10410780;28;19925;-59
2022/10/03 21:46:06;;;;;;;;;;;;;;;;;;10408274;28;19925;-59
2022/10/03 21:51:08;;;;;;;;;;;;;;;;;;10407574;28;20020;-59
2022/10/03 21:56:10;;;;;;;;;;;;;;;;;;10413720;28;19925;-59
2022/10/03 22:01:12;;;;;;;;;;;;;;;;;;10411630;28;19932;-59
2022/10/03 22:06:14;;;;;;;;;;;;;;;;;;10413482;28;19972;-59
2022/10/03 22:11:16;;;;;;;;;;;;;;;;;;10411480;28;19925;-59
2022/10/03 22:16:18;;;;;;;;;;;;;;;;;;10412801;28;20323;-59
2022/10/03 22:21:20;;;;;;;;;;;;;;;;;;10414442;28;20183;-59
2022/10/03 22:26:23;;;;;;;;;;;;;;;;;;10412353;28;19964;-59
2022/10/03 22:31:25;;;;;;;;;;;;;;;;;;10411597;28;19930;-59
2022/10/03 22:36:27;;;;;;;;;;;;;;;;;;10415468;28;20335;-59
2022/10/03 22:41:29;;;;;;;;;;;;;;;;;;10416847;28;19935;-59
2022/10/03 22:46:31;;;;;;;;;;;;;;;;;;10412045;28;19925;-59
2022/10/03 22:51:33;;;;;;;;;;;;;;;;;;10413710;28;19925;-59
2022/10/03 22:56:35;;;;;;;;;;;;;;;;;;10412997;28;19995;-59
2022/10/03 23:01:37;;;;;;;;;;;;;;;;;;10416544;28;19932;-59
2022/10/03 23:06:39;;;;;;;;;;;;;;;;;;10417045;28;20372;-59
2022/10/03 23:11:42;;;;;;;;;;;;;;;;;;10414825;28;19925;-59
2022/10/03 23:16:44;;;;;;;;;;;;;;;;;;10416433;28;19926;-59
2022/10/03 23:21:46;;;;;;;;;;;;;;;;;;10415550;28;19925;-59
2022/10/03 23:26:48;;;;;;;;;;;;;;;;;;10412650;28;20034;-60
2022/10/03 23:31:52;;;;;;;;;;;;;;;;;;10417240;28;20446;-59
2022/10/03 23:36:54;;;;;;;;;;;;;;;;;;10412879;28;19952;-59
2022/10/03 23:41:56;;;;;;;;;;;;;;;;;;10414181;28;20380;-59
2022/10/03 23:46:58;;;;;;;;;;;;;;;;;;10410911;28;19933;-59
2022/10/03 23:52:00;;;;;;;;;;;;;;;;;;10414220;28;19968;-59
2022/10/03 23:57:02;;;;;;;;;;;;;;;;;;10412873;28;19925;-59
